createdAt,value
2022-08-01T00:03:40.903Z,69.51
2022-08-01T00:08:44.736Z,69.42
2022-08-01T00:13:57.400Z,69.67
2022-08-01T00:19:00.835Z,69.93
2022-08-01T00:24:04.455Z,69.60
2022-08-01T00:29:10.161Z,70.32
2022-08-01T00:34:31.965Z,70.15
2022-08-01T00:39:35.588Z,70.42
2022-08-01T00:44:39.856Z,70.39
2022-08-01T00:49:43.291Z,70.28
2022-08-01T00:54:47.475Z,70.36
2022-08-01T00:59:51.393Z,70.68
2022-08-01T01:04:55.921Z,70.96
2022-08-01T01:10:05.076Z,70.83
2022-08-01T01:15:27.849Z,70.66
2022-08-01T01:20:41.594Z,70.65
2022-08-01T01:26:15.757Z,71.20
2022-08-01T01:31:22.580Z,71.22
2022-08-01T01:36:28.451Z,71.26
2022-08-01T01:41:33.079Z,71.28
2022-08-01T01:46:37.688Z,71.52
2022-08-01T01:51:54.198Z,71.49
2022-08-01T01:57:09.504Z,71.59
2022-08-01T02:02:15.766Z,71.74
2022-08-01T02:07:23.553Z,71.57
2022-08-01T02:12:28.240Z,71.94
2022-08-01T02:17:32.592Z,71.69
2022-08-01T02:22:43.387Z,71.76
2022-08-01T02:27:59.035Z,71.83
2022-08-01T02:33:25.961Z,71.99
2022-08-01T02:38:33.652Z,72.02
2022-08-01T02:43:47.083Z,72.20
2022-08-01T02:48:59.917Z,72.38
2022-08-01T02:54:06.529Z,72.29
2022-08-01T02:59:14.526Z,72.60
2022-08-01T03:04:20.296Z,72.63
2022-08-01T03:09:26.342Z,72.67
2022-08-01T03:14:32.386Z,72.51
2022-08-01T03:19:37.444Z,72.47
2022-08-01T03:24:43.929Z,72.71
2022-08-01T03:29:49.554Z,72.82
2022-08-01T03:34:53.263Z,72.74
2022-08-01T03:40:03.435Z,72.74
2022-08-01T03:45:13.282Z,72.73
2022-08-01T03:50:20.284Z,72.79
2022-08-01T03:55:24.638Z,72.67
2022-08-01T04:00:29.276Z,72.75
2022-08-01T04:05:32.723Z,72.90
2022-08-01T04:10:37.720Z,72.84
2022-08-01T04:15:41.179Z,72.37
2022-08-01T04:20:44.647Z,72.34
2022-08-01T04:25:51.159Z,72.40
2022-08-01T04:31:01.667Z,72.39
2022-08-01T04:36:08.198Z,71.70
2022-08-01T04:41:14.019Z,72.18
2022-08-01T04:46:17.563Z,71.82
2022-08-01T04:51:32.630Z,72.07
2022-08-01T04:56:36.121Z,71.72
2022-08-01T05:01:40.018Z,71.54
2022-08-01T05:06:44.704Z,71.42
2022-08-01T05:11:48.321Z,71.31
2022-08-01T05:16:51.825Z,70.68
2022-08-01T05:21:55.168Z,70.59
2022-08-01T05:27:04.198Z,70.47
2022-08-01T05:32:08.087Z,70.40
2022-08-01T05:37:11.688Z,67.94
2022-08-01T05:42:15.000Z,66.71
2022-08-01T05:47:18.733Z,66.67
2022-08-01T05:52:22.088Z,67.15
2022-08-01T05:57:26.076Z,67.20
2022-08-01T06:02:29.777Z,65.14
2022-08-01T06:07:33.746Z,65.00
2022-08-01T06:12:42.086Z,64.94
2022-08-01T06:17:45.939Z,64.87
2022-08-01T06:22:52.568Z,63.87
2022-08-01T06:27:56.701Z,60.61
2022-08-01T06:33:00.478Z,53.25
2022-08-01T06:38:04.499Z,52.64
2022-08-01T06:43:08.722Z,55.37
2022-08-01T06:48:12.496Z,52.10
2022-08-01T06:53:15.966Z,49.09
2022-08-01T06:58:19.296Z,48.96
2022-08-01T07:03:24.533Z,49.18
2022-08-01T07:08:28.720Z,51.11
2022-08-01T07:13:43.993Z,52.94
2022-08-01T07:18:49.441Z,52.28
2022-08-01T07:23:52.977Z,52.95
2022-08-01T07:28:59.348Z,50.94
2022-08-01T07:34:03.534Z,49.45
2022-08-01T07:39:07.087Z,51.15
2022-08-01T07:44:10.600Z,51.56
2022-08-01T07:49:13.965Z,52.37
2022-08-01T07:54:17.572Z,52.39
2022-08-01T07:59:23.255Z,53.12
2022-08-01T08:04:29.772Z,53.04
2022-08-01T08:09:37.447Z,53.40
2022-08-01T08:14:41.770Z,53.92
2022-08-01T08:19:45.326Z,53.46
2022-08-01T08:24:48.878Z,53.30
2022-08-01T08:29:52.341Z,52.39
2022-08-01T08:34:55.871Z,52.61
2022-08-01T08:39:59.652Z,52.29
2022-08-01T08:45:03.903Z,52.23
2022-08-01T08:50:08.521Z,52.58
2022-08-01T08:55:13.670Z,52.41
2022-08-01T09:00:17.658Z,53.12
2022-08-01T09:05:25.042Z,52.82
2022-08-01T09:10:48.357Z,53.09
2022-08-01T09:15:58.509Z,53.29
2022-08-01T09:21:14.914Z,53.76
2022-08-01T09:26:31.442Z,54.17
2022-08-01T09:31:47.502Z,54.83
2022-08-01T09:36:57.780Z,55.07
2022-08-01T09:42:04.032Z,55.12
2022-08-01T09:47:08.198Z,55.34
2022-08-01T09:52:25.898Z,55.31
2022-08-01T09:57:32.638Z,55.18
2022-08-01T10:02:38.482Z,55.05
2022-08-01T10:08:02.601Z,55.38
2022-08-01T10:13:13.120Z,55.02
2022-08-01T10:18:25.868Z,55.02
2022-08-01T10:23:40.469Z,54.30
2022-08-01T10:28:49.191Z,54.11
2022-08-01T10:33:53.770Z,53.96
2022-08-01T10:38:59.583Z,54.72
2022-08-01T10:44:04.431Z,54.78
2022-08-01T10:49:15.191Z,55.04
2022-08-01T10:54:18.660Z,55.71
2022-08-01T10:59:50.971Z,55.73
2022-08-01T11:05:02.134Z,55.36
2022-08-01T11:10:51.187Z,55.47
2022-08-01T11:16:28.300Z,55.60
2022-08-01T11:21:59.150Z,56.08
2022-08-01T11:27:23.541Z,55.83
2022-08-01T11:32:28.864Z,56.07
2022-08-01T11:37:32.248Z,55.88
2022-08-01T11:42:36.719Z,56.23
2022-08-01T11:47:51.352Z,56.62
2022-08-01T11:53:06.404Z,56.90
2022-08-01T11:58:22.279Z,56.75
2022-08-01T12:03:34.519Z,57.31
2022-08-01T12:08:43.100Z,57.84
2022-08-01T12:13:46.818Z,57.66
2022-08-01T12:18:50.361Z,57.85
2022-08-01T12:24:04.569Z,57.85
2022-08-01T12:29:08.565Z,58.16
2022-08-01T12:34:28.374Z,58.73
2022-08-01T12:39:34.002Z,58.31
2022-08-01T12:44:39.186Z,58.51
2022-08-01T12:49:44.661Z,58.61
2022-08-01T12:55:09.616Z,58.95
2022-08-01T13:00:21.035Z,58.96
2022-08-01T13:05:26.298Z,59.30
2022-08-01T13:10:31.738Z,58.74
2022-08-01T13:15:41.867Z,59.52
2022-08-01T13:20:45.641Z,59.35
2022-08-01T13:25:56.902Z,59.34
2022-08-01T13:31:01.278Z,59.50
2022-08-01T13:36:05.389Z,59.95
2022-08-01T13:41:09.460Z,59.65
2022-08-01T13:46:13.139Z,59.94
2022-08-01T13:51:22.713Z,59.79
2022-08-01T13:56:27.253Z,60.49
2022-08-01T14:01:34.207Z,60.57
2022-08-01T14:06:38.175Z,60.55
2022-08-01T14:11:45.844Z,60.88
2022-08-01T14:16:49.550Z,61.22
2022-08-01T14:21:53.861Z,61.26
2022-08-01T14:26:58.323Z,61.29
2022-08-01T14:32:02.348Z,61.45
2022-08-01T14:37:06.128Z,61.39
2022-08-01T14:42:11.979Z,61.81
2022-08-01T14:47:22.074Z,62.34
2022-08-01T14:52:25.992Z,62.74
2022-08-01T14:57:30.580Z,62.92
2022-08-01T15:02:34.152Z,63.48
2022-08-01T15:07:41.762Z,63.76
2022-08-01T15:12:55.959Z,63.73
2022-08-01T15:18:00.835Z,64.06
2022-08-01T15:23:04.346Z,64.19
2022-08-01T15:28:07.775Z,64.37
2022-08-01T15:33:11.046Z,64.67
2022-08-01T15:38:14.481Z,64.57
2022-08-01T15:43:17.650Z,64.83
2022-08-01T15:48:21.035Z,65.12
2022-08-01T15:53:24.627Z,65.26
2022-08-01T15:58:28.255Z,65.43
2022-08-01T16:03:31.734Z,65.73
2022-08-01T16:08:36.955Z,66.30
2022-08-01T16:13:40.415Z,66.55
2022-08-01T16:18:44.285Z,66.61
2022-08-01T16:23:47.814Z,67.04
2022-08-01T16:28:51.862Z,66.90
2022-08-01T16:33:58.220Z,67.16
2022-08-01T16:39:05.681Z,67.31
2022-08-01T16:44:10.874Z,67.61
2022-08-01T16:49:17.084Z,67.65
2022-08-01T16:54:24.647Z,67.71
2022-08-01T16:59:30.057Z,67.82
2022-08-01T17:04:41.374Z,67.93
2022-08-01T17:09:44.907Z,68.15
2022-08-01T17:14:49.405Z,68.34
2022-08-01T17:19:52.998Z,68.24
2022-08-01T17:24:56.713Z,68.31
2022-08-01T17:30:00.149Z,68.64
2022-08-01T17:35:04.232Z,68.84
2022-08-01T17:40:37.489Z,69.08
2022-08-01T17:45:32.129Z,69.26
2022-08-01T17:50:45.378Z,69.50
2022-08-01T17:55:54.484Z,69.66
2022-08-01T18:01:01.104Z,69.28
2022-08-01T18:06:04.531Z,69.75
2022-08-01T18:11:09.174Z,69.67
2022-08-01T18:16:13.597Z,69.59
2022-08-01T18:21:17.525Z,69.89
2022-08-01T18:26:21.984Z,69.96
2022-08-01T18:31:25.580Z,70.04
2022-08-01T18:36:32.312Z,70.26
2022-08-01T18:41:38.700Z,70.19
2022-08-01T18:46:42.363Z,70.20
2022-08-01T18:51:46.290Z,70.42
2022-08-01T18:56:56.644Z,70.84
2022-08-01T19:02:00.796Z,70.73
2022-08-01T19:07:05.605Z,70.73
2022-08-01T19:12:09.477Z,71.01
2022-08-01T19:17:13.192Z,70.93
2022-08-01T19:22:17.114Z,71.37
2022-08-01T19:27:24.087Z,71.10
2022-08-01T19:32:30.524Z,71.15
2022-08-01T19:37:34.589Z,71.29
2022-08-01T19:42:41.916Z,71.75
2022-08-01T19:47:51.851Z,71.63
2022-08-01T19:53:03.479Z,71.84
2022-08-01T19:58:26.399Z,71.86
2022-08-01T20:03:34.116Z,71.75
2022-08-01T20:08:38.035Z,71.79
2022-08-01T20:13:41.730Z,71.97
2022-08-01T20:18:45.311Z,72.26
2022-08-01T20:23:51.250Z,72.24
2022-08-01T20:28:56.819Z,72.27
2022-08-01T20:34:01.120Z,72.23
2022-08-01T20:39:04.618Z,72.25
2022-08-01T20:44:09.710Z,72.67
2022-08-01T20:49:13.789Z,72.42
2022-08-01T20:54:17.231Z,72.73
2022-08-01T20:59:39.618Z,72.94
2022-08-01T21:05:03.731Z,72.81
2022-08-01T21:10:09.528Z,73.07
2022-08-01T21:15:37.866Z,73.16
2022-08-01T21:21:11.493Z,72.97
2022-08-01T21:26:21.093Z,73.28
2022-08-01T21:31:25.703Z,73.26
2022-08-01T21:36:45.635Z,73.42
2022-08-01T21:41:56.713Z,73.81
2022-08-01T21:47:11.868Z,73.56
2022-08-01T21:52:17.715Z,73.49
2022-08-01T21:57:43.222Z,73.90
2022-08-01T22:03:08.018Z,74.01
2022-08-01T22:08:13.797Z,73.88
2022-08-01T22:13:17.420Z,74.05
2022-08-01T22:18:20.933Z,74.24
2022-08-01T22:23:24.562Z,74.10
2022-08-01T22:28:28.975Z,74.30
2022-08-01T22:33:35.746Z,74.04
2022-08-01T22:38:39.089Z,74.19
2022-08-01T22:44:08.491Z,74.44
2022-08-01T22:49:32.108Z,74.32
2022-08-01T22:54:43.082Z,74.31
2022-08-01T22:59:57.561Z,74.71
2022-08-01T23:05:06.820Z,74.52
2022-08-01T23:10:10.349Z,74.79
2022-08-01T23:15:14.072Z,75.09
2022-08-01T23:20:18.620Z,75.11
2022-08-01T23:25:23.715Z,75.24
2022-08-01T23:30:30.820Z,74.88
2022-08-01T23:35:35.492Z,74.98
2022-08-01T23:40:43.145Z,75.30
2022-08-01T23:46:03.230Z,75.15
2022-08-01T23:51:09.402Z,75.14
2022-08-01T23:56:19.163Z,75.33
